createdAt,value
2022-09-23T00:00:53.729Z,11.71
2022-09-23T00:01:53.840Z,11.71
2022-09-23T00:02:53.740Z,11.73
2022-09-23T00:03:53.686Z,11.73
2022-09-23T00:04:53.712Z,11.70
2022-09-23T00:05:53.661Z,11.69
2022-09-23T00:06:53.682Z,11.67
2022-09-23T00:07:53.652Z,11.66
2022-09-23T00:08:53.625Z,11.66
2022-09-23T00:09:53.613Z,11.66
2022-09-23T00:10:53.601Z,11.64
2022-09-23T00:11:53.596Z,11.61
2022-09-23T00:12:53.580Z,11.62
2022-09-23T00:13:53.555Z,11.62
2022-09-23T00:14:53.559Z,11.62
2022-09-23T00:15:53.537Z,11.61
2022-09-23T00:16:53.605Z,11.61
2022-09-23T00:17:53.509Z,11.61
2022-09-23T00:18:53.500Z,11.59
2022-09-23T00:19:53.503Z,11.61
2022-09-23T00:20:53.470Z,11.61
2022-09-23T00:21:53.485Z,11.61
2022-09-23T00:22:53.447Z,11.59
2022-09-23T00:23:53.429Z,11.59
2022-09-23T00:24:53.405Z,11.58
2022-09-23T00:25:53.492Z,11.56
2022-09-23T00:26:53.406Z,11.56
2022-09-23T00:27:53.377Z,11.56
2022-09-23T00:28:53.374Z,11.56
2022-09-23T00:29:53.361Z,11.55
2022-09-23T00:30:53.412Z,11.55
2022-09-23T00:31:53.351Z,11.54
2022-09-23T00:32:53.313Z,11.54
2022-09-23T00:33:53.322Z,11.52
2022-09-23T00:34:53.295Z,11.51
2022-09-23T00:35:53.316Z,11.49
2022-09-23T00:36:53.294Z,11.49
2022-09-23T00:37:53.310Z,11.51
2022-09-23T00:38:53.242Z,11.51
2022-09-23T00:39:53.232Z,11.48
2022-09-23T00:40:53.222Z,11.49
2022-09-23T00:41:53.231Z,11.48
2022-09-23T00:42:53.213Z,11.48
2022-09-23T00:43:53.176Z,11.48
2022-09-23T00:44:53.171Z,11.48
2022-09-23T00:45:53.173Z,11.46
2022-09-23T00:46:53.166Z,11.46
2022-09-23T00:47:53.133Z,11.48
2022-09-23T00:48:53.125Z,11.45
2022-09-23T00:49:53.102Z,11.45
2022-09-23T00:50:53.091Z,11.41
2022-09-23T00:51:53.121Z,11.45
2022-09-23T00:52:53.092Z,11.41
2022-09-23T00:53:53.049Z,11.41
2022-09-23T00:54:53.044Z,11.43
2022-09-23T00:55:53.021Z,11.43
2022-09-23T00:56:53.030Z,11.45
2022-09-23T00:57:53.034Z,11.45
2022-09-23T00:58:53.000Z,11.45
2022-09-23T00:59:52.987Z,11.43
2022-09-23T01:00:52.984Z,11.41
2022-09-23T01:01:52.984Z,11.41
2022-09-23T01:02:53.013Z,11.41
2022-09-23T01:03:52.943Z,11.41
2022-09-23T01:04:52.930Z,11.38
2022-09-23T01:05:52.914Z,11.38
2022-09-23T01:06:52.913Z,11.36
2022-09-23T01:07:52.871Z,11.36
2022-09-23T01:08:52.875Z,11.34
2022-09-23T01:09:52.853Z,11.34
2022-09-23T01:10:52.848Z,11.34
2022-09-23T01:11:52.837Z,11.34
2022-09-23T01:12:52.813Z,11.34
2022-09-23T01:13:52.794Z,11.33
2022-09-23T01:14:52.785Z,11.33
2022-09-23T01:15:52.783Z,11.33
2022-09-23T01:16:52.885Z,11.31
2022-09-23T01:17:52.746Z,11.30
2022-09-23T01:18:52.778Z,11.30
2022-09-23T01:19:52.713Z,11.30
2022-09-23T01:20:52.742Z,11.30
2022-09-23T01:21:52.735Z,11.28
2022-09-23T01:22:52.686Z,11.27
2022-09-23T01:23:52.727Z,11.27
2022-09-23T01:24:52.658Z,11.25
2022-09-23T01:25:52.642Z,11.27
2022-09-23T01:26:52.701Z,11.27
2022-09-23T01:27:52.637Z,11.27
2022-09-23T01:28:52.623Z,11.27
2022-09-23T01:29:52.587Z,11.27
2022-09-23T01:30:52.632Z,11.27
2022-09-23T01:31:52.598Z,11.25
2022-09-23T01:32:52.603Z,11.25
2022-09-23T01:33:52.530Z,11.23
2022-09-23T01:34:52.558Z,11.23
2022-09-23T01:35:52.542Z,11.23
2022-09-23T01:36:52.517Z,11.22
2022-09-23T01:37:52.494Z,11.22
2022-09-23T01:38:52.477Z,11.20
2022-09-23T01:39:52.462Z,11.19
2022-09-23T01:40:52.503Z,11.16
2022-09-23T01:41:52.464Z,11.16
2022-09-23T01:42:52.423Z,11.19
2022-09-23T01:43:52.410Z,11.16
2022-09-23T01:44:52.409Z,11.16
2022-09-23T01:45:52.422Z,11.13
2022-09-23T01:46:52.396Z,11.15
2022-09-23T01:47:52.406Z,11.15
2022-09-23T01:48:52.346Z,11.12
2022-09-23T01:49:52.330Z,11.15
2022-09-23T01:50:52.315Z,11.12
2022-09-23T01:51:52.393Z,11.11
2022-09-23T01:52:52.326Z,11.11
2022-09-23T01:53:52.272Z,11.09
2022-09-23T01:54:52.268Z,11.08
2022-09-23T01:55:52.261Z,11.08
2022-09-23T01:56:52.261Z,11.05
2022-09-23T01:57:52.256Z,11.05
2022-09-23T01:58:52.219Z,11.04
2022-09-23T01:59:52.203Z,11.01
2022-09-23T02:00:52.224Z,11.03
2022-09-23T02:01:52.197Z,11.00
2022-09-23T02:02:52.226Z,11.00
2022-09-23T02:03:52.141Z,10.97
2022-09-23T02:04:52.162Z,10.97
2022-09-23T02:05:52.119Z,10.97
2022-09-23T02:06:52.139Z,10.95
2022-09-23T02:07:52.107Z,10.93
2022-09-23T02:08:52.082Z,10.91
2022-09-23T02:09:52.065Z,10.90
2022-09-23T02:10:52.054Z,10.90
2022-09-23T02:11:52.073Z,10.87
2022-09-23T02:12:52.056Z,10.86
2022-09-23T02:13:52.022Z,10.87
2022-09-23T02:14:52.005Z,10.87
2022-09-23T02:15:52.040Z,10.86
2022-09-23T02:16:52.275Z,10.83
2022-09-23T02:17:51.967Z,10.83
2022-09-23T02:18:51.963Z,10.82
2022-09-23T02:19:51.959Z,10.80
2022-09-23T02:20:51.924Z,10.80
2022-09-23T02:21:51.941Z,10.80
2022-09-23T02:22:51.900Z,10.79
2022-09-23T02:23:51.894Z,10.79
2022-09-23T02:24:51.876Z,10.79
2022-09-23T02:25:51.867Z,10.79
2022-09-23T02:26:51.872Z,10.79
2022-09-23T02:27:51.840Z,10.79
2022-09-23T02:28:51.834Z,10.80
2022-09-23T02:29:51.827Z,10.80
2022-09-23T02:30:51.842Z,10.79
2022-09-23T02:31:51.834Z,10.78
2022-09-23T02:32:51.836Z,10.78
2022-09-23T02:33:51.786Z,10.78
2022-09-23T02:34:51.744Z,10.78
2022-09-23T02:35:51.781Z,10.76
2022-09-23T02:36:51.748Z,10.75
2022-09-23T02:37:51.703Z,10.75
2022-09-23T02:38:51.687Z,10.75
2022-09-23T02:39:51.707Z,10.73
2022-09-23T02:40:51.704Z,10.73
2022-09-23T02:41:51.705Z,10.72
2022-09-23T02:42:51.641Z,10.73
2022-09-23T02:43:51.629Z,10.72
2022-09-23T02:44:51.619Z,10.73
2022-09-23T02:45:51.665Z,10.72
2022-09-23T02:46:51.601Z,10.72
2022-09-23T02:47:51.572Z,10.70
2022-09-23T02:48:51.568Z,10.73
2022-09-23T02:49:51.578Z,10.72
2022-09-23T02:50:51.545Z,10.73
2022-09-23T02:51:51.546Z,10.72
2022-09-23T02:52:51.500Z,10.70
2022-09-23T02:53:51.499Z,10.70
2022-09-23T02:54:51.476Z,10.70
2022-09-23T02:55:51.473Z,10.72
2022-09-23T02:56:51.494Z,10.72
2022-09-23T02:57:51.474Z,10.70
2022-09-23T02:58:51.426Z,10.72
2022-09-23T02:59:51.433Z,10.70
2022-09-23T03:00:51.478Z,10.67
2022-09-23T03:01:51.429Z,10.67
2022-09-23T03:02:51.377Z,10.67
2022-09-23T03:03:51.365Z,10.67
2022-09-23T03:04:51.391Z,10.67
2022-09-23T03:05:51.340Z,10.65
2022-09-23T03:06:51.336Z,10.64
2022-09-23T03:07:51.314Z,10.62
2022-09-23T03:08:51.294Z,10.62
2022-09-23T03:09:51.280Z,10.61
2022-09-23T03:10:51.290Z,10.61
2022-09-23T03:11:51.278Z,10.61
2022-09-23T03:12:51.245Z,10.61
2022-09-23T03:13:51.237Z,10.60
2022-09-23T03:14:51.218Z,10.58
2022-09-23T03:15:51.233Z,10.58
2022-09-23T03:16:51.239Z,10.60
2022-09-23T03:17:51.189Z,10.60
2022-09-23T03:18:51.167Z,10.60
2022-09-23T03:19:51.194Z,10.60
2022-09-23T03:20:51.136Z,10.58
2022-09-23T03:21:51.159Z,10.60
2022-09-23T03:22:51.100Z,10.58
2022-09-23T03:23:51.111Z,10.57
2022-09-23T03:24:53.995Z,10.57
2022-09-23T03:25:51.082Z,10.57
2022-09-23T03:26:51.095Z,10.55
2022-09-23T03:27:51.068Z,10.55
2022-09-23T03:28:51.032Z,10.57
2022-09-23T03:29:51.031Z,10.57
2022-09-23T03:30:51.036Z,10.58
2022-09-23T03:31:51.047Z,10.57
2022-09-23T03:32:50.992Z,10.57
2022-09-23T03:33:50.986Z,10.57
2022-09-23T03:34:51.002Z,10.57
2022-09-23T03:35:50.976Z,10.55
2022-09-23T03:36:50.966Z,10.54
2022-09-23T03:37:50.943Z,10.54
2022-09-23T03:38:50.913Z,10.52
2022-09-23T03:39:50.907Z,10.54
2022-09-23T03:40:51.091Z,10.54
2022-09-23T03:41:50.966Z,10.54
2022-09-23T03:42:50.857Z,10.54
2022-09-23T03:43:50.884Z,10.52
2022-09-23T03:44:50.848Z,10.49
2022-09-23T03:45:50.892Z,10.48
2022-09-23T03:46:50.818Z,10.46
2022-09-23T03:47:50.802Z,10.46
2022-09-23T03:48:50.799Z,10.46
2022-09-23T03:49:50.781Z,10.45
2022-09-23T03:50:50.776Z,10.41
2022-09-23T03:51:50.744Z,10.41
2022-09-23T03:52:50.735Z,10.42
2022-09-23T03:53:50.717Z,10.39
2022-09-23T03:54:50.702Z,10.39
2022-09-23T03:55:50.714Z,10.38
2022-09-23T03:56:50.684Z,10.39
2022-09-23T03:57:50.672Z,10.41
2022-09-23T03:58:50.688Z,10.41
2022-09-23T04:03:30.400Z,10.39
2022-09-23T04:04:31.411Z,10.38
2022-09-23T04:05:31.377Z,10.36
2022-09-23T04:06:31.380Z,10.36
2022-09-23T04:07:31.340Z,10.36
2022-09-23T04:08:31.330Z,10.36
2022-09-23T04:09:31.319Z,10.36
2022-09-23T04:10:31.328Z,10.36
2022-09-23T04:11:31.319Z,10.35
2022-09-23T04:12:31.281Z,10.38
2022-09-23T04:13:31.297Z,10.35
2022-09-23T04:14:31.265Z,10.36
2022-09-23T04:15:31.248Z,10.34
2022-09-23T04:16:31.658Z,10.31
2022-09-23T04:17:31.220Z,10.30
2022-09-23T04:18:31.223Z,10.28
2022-09-23T04:19:31.188Z,10.26
2022-09-23T04:20:31.185Z,10.26
2022-09-23T04:21:31.181Z,10.27
2022-09-23T04:22:31.165Z,10.27
2022-09-23T04:23:31.138Z,10.28
2022-09-23T04:24:31.138Z,10.28
2022-09-23T04:25:31.132Z,10.28
2022-09-23T04:26:31.130Z,10.27
2022-09-23T04:27:35.481Z,10.28
2022-09-23T04:29:52.677Z,10.30
2022-09-23T04:30:53.668Z,10.28
2022-09-23T04:31:54.474Z,10.30
2022-09-23T04:32:53.652Z,10.31
2022-09-23T04:33:53.632Z,10.30
2022-09-23T04:34:53.613Z,10.28
2022-09-23T04:35:53.598Z,10.26
2022-09-23T04:36:53.610Z,10.24
2022-09-23T04:37:53.600Z,10.24
2022-09-23T04:38:53.578Z,10.24
2022-09-23T04:39:53.561Z,10.24
2022-09-23T04:40:53.613Z,10.21
2022-09-23T04:41:53.546Z,10.21
2022-09-23T04:42:53.512Z,10.21
2022-09-23T04:49:59.970Z,10.16
2022-09-23T04:50:58.647Z,10.16
2022-09-23T04:51:58.658Z,10.17
2022-09-23T04:52:58.619Z,10.16
2022-09-23T04:53:58.664Z,10.14
2022-09-23T04:54:58.648Z,10.14
2022-09-23T04:55:58.612Z,10.14
2022-09-23T04:56:58.585Z,10.14
2022-09-23T04:57:58.638Z,10.14
2022-09-23T04:58:58.558Z,10.14
2022-09-23T04:59:58.565Z,10.16
2022-09-23T05:01:02.966Z,10.16
2022-09-23T05:01:58.583Z,10.17
2022-09-23T05:02:58.490Z,10.16
2022-09-23T05:03:58.492Z,10.16
2022-09-23T05:04:58.469Z,10.17
2022-09-23T05:05:58.452Z,10.17
2022-09-23T05:07:02.925Z,10.14
2022-09-23T05:07:58.435Z,10.14
2022-09-23T05:08:58.411Z,10.16
2022-09-23T05:09:58.408Z,10.12
2022-09-23T05:10:58.387Z,10.10
2022-09-23T05:11:58.398Z,10.10
2022-09-23T05:12:58.356Z,10.12
2022-09-23T05:13:58.350Z,10.12
2022-09-23T05:14:58.354Z,10.12
2022-09-23T05:15:58.407Z,10.12
2022-09-23T05:16:58.333Z,10.14
2022-09-23T05:17:58.298Z,10.14
2022-09-23T05:18:58.284Z,10.14
2022-09-23T05:19:58.274Z,10.14
2022-09-23T05:20:58.362Z,10.14
2022-09-23T05:21:58.299Z,10.10
2022-09-23T05:22:58.229Z,10.12
2022-09-23T05:23:58.241Z,10.10
2022-09-23T05:24:58.209Z,10.12
2022-09-23T05:25:58.203Z,10.10
2022-09-23T05:26:58.213Z,10.12
2022-09-23T05:27:58.176Z,10.14
2022-09-23T05:28:58.150Z,10.14
2022-09-23T05:29:58.184Z,10.10
2022-09-23T05:30:58.186Z,10.14
2022-09-23T05:31:58.247Z,10.12
2022-09-23T05:32:58.111Z,10.12
2022-09-23T05:33:58.100Z,10.09
2022-09-23T05:34:58.094Z,10.10
2022-09-23T05:39:57.275Z,10.14
2022-09-23T05:40:58.228Z,10.14
2022-09-23T05:41:58.213Z,10.12
2022-09-23T05:42:58.182Z,10.10
2022-09-23T05:43:58.199Z,10.10
2022-09-23T05:44:58.153Z,10.12
2022-09-23T05:45:58.146Z,10.12
2022-09-23T05:46:58.203Z,10.14
2022-09-23T05:47:58.125Z,10.14
2022-09-23T05:49:06.764Z,10.17
2022-09-23T05:50:00.478Z,10.16
2022-09-23T05:50:58.093Z,10.12
2022-09-23T06:00:00.285Z,10.17
2022-09-23T06:01:01.245Z,10.17
2022-09-23T06:02:01.323Z,10.20
2022-09-23T06:03:01.265Z,10.21
2022-09-23T06:04:01.212Z,10.21
2022-09-23T06:05:01.196Z,10.21
2022-09-23T06:06:01.177Z,10.21
2022-09-23T06:07:03.537Z,10.24
2022-09-23T06:08:01.154Z,10.27
2022-09-23T06:09:01.158Z,10.28
2022-09-23T06:10:01.156Z,10.31
2022-09-23T06:11:01.123Z,10.30
2022-09-23T06:12:01.133Z,10.28
2022-09-23T06:13:01.104Z,10.34
2022-09-23T06:14:01.253Z,10.35
2022-09-23T06:15:01.081Z,10.35
2022-09-23T06:16:01.112Z,10.35
2022-09-23T06:17:01.062Z,10.34
2022-09-23T06:18:01.018Z,10.34
2022-09-23T06:19:05.252Z,10.36
2022-09-23T06:20:01.000Z,10.39
2022-09-23T06:21:00.978Z,10.41
2022-09-23T06:22:00.972Z,10.48
2022-09-23T06:23:00.961Z,10.52
2022-09-23T06:24:00.941Z,10.58
2022-09-23T06:25:00.934Z,10.62
2022-09-23T06:26:00.925Z,10.65
2022-09-23T06:27:00.974Z,10.67
2022-09-23T06:28:00.889Z,10.72
2022-09-23T06:29:00.886Z,10.72
2022-09-23T06:30:00.865Z,10.75
2022-09-23T06:31:00.932Z,10.79
2022-09-23T06:32:00.920Z,10.82
2022-09-23T06:33:00.839Z,10.85
2022-09-23T06:34:12.423Z,10.90
2022-09-23T06:40:02.164Z,11.09
2022-09-23T06:41:03.171Z,11.12
2022-09-23T06:42:03.136Z,11.16
2022-09-23T06:43:03.139Z,11.19
2022-09-23T06:44:03.175Z,11.22
2022-09-23T06:45:03.077Z,11.25
2022-09-23T06:46:03.066Z,11.27
2022-09-23T06:47:03.106Z,11.31
2022-09-23T06:48:03.047Z,11.36
2022-09-23T06:49:03.059Z,11.36
2022-09-23T06:50:03.015Z,11.37
2022-09-23T06:51:03.000Z,11.45
2022-09-23T06:52:03.003Z,11.49
2022-09-23T06:53:02.983Z,11.52
2022-09-23T06:54:03.014Z,11.59
2022-09-23T06:59:57.096Z,12.32
2022-09-23T07:00:58.083Z,12.35
2022-09-23T07:01:58.202Z,12.41
2022-09-23T07:02:58.058Z,12.43
2022-09-23T07:03:58.029Z,12.43
2022-09-23T07:04:58.048Z,12.44
2022-09-23T07:05:58.007Z,12.47
2022-09-23T07:06:58.001Z,12.51
2022-09-23T07:07:57.974Z,12.55
2022-09-23T07:08:57.955Z,12.54
2022-09-23T07:09:57.957Z,12.51
2022-09-23T07:10:57.929Z,12.54
2022-09-23T07:11:57.963Z,12.59
2022-09-23T07:12:57.905Z,12.61
2022-09-23T07:13:57.904Z,12.62
2022-09-23T07:14:57.880Z,12.69
2022-09-23T07:15:57.885Z,12.76
2022-09-23T07:16:57.881Z,12.84
2022-09-23T07:17:57.846Z,12.95
2022-09-23T07:18:57.824Z,13.01
2022-09-23T07:19:57.821Z,13.08
2022-09-23T07:20:57.814Z,13.16
2022-09-23T07:21:57.849Z,13.16
2022-09-23T07:22:57.781Z,13.16
2022-09-23T07:23:57.770Z,13.04
2022-09-23T07:24:57.745Z,13.04
2022-09-23T07:25:57.742Z,13.06
2022-09-23T07:26:57.744Z,13.16
2022-09-23T07:27:57.709Z,13.24
2022-09-23T07:28:57.692Z,13.23
2022-09-23T07:29:57.733Z,13.29
2022-09-23T07:31:00.668Z,13.35
2022-09-23T07:32:10.613Z,13.42
2022-09-23T07:32:57.678Z,13.42
2022-09-23T07:33:57.635Z,13.45
2022-09-23T07:39:56.807Z,13.11
2022-09-23T07:40:57.786Z,13.09
2022-09-23T07:41:57.774Z,13.05
2022-09-23T07:42:57.830Z,13.05
2022-09-23T07:43:57.734Z,13.05
2022-09-23T07:44:57.721Z,13.01
2022-09-23T07:45:57.774Z,13.04
2022-09-23T07:46:57.723Z,13.06
2022-09-23T07:47:57.693Z,13.08
2022-09-23T07:48:57.668Z,13.13
2022-09-23T07:49:57.648Z,13.13
2022-09-23T07:50:57.639Z,13.19
2022-09-23T07:51:57.651Z,13.23
2022-09-23T07:52:57.625Z,13.24
2022-09-23T07:53:57.600Z,13.24
2022-09-23T08:00:01.768Z,13.35
2022-09-23T08:01:02.718Z,13.26
2022-09-23T08:02:02.805Z,13.23
2022-09-23T08:03:02.752Z,13.27
2022-09-23T08:04:02.682Z,13.30
2022-09-23T08:05:02.646Z,13.32
2022-09-23T08:06:02.660Z,13.30
2022-09-23T08:07:02.616Z,13.35
2022-09-23T08:08:02.634Z,13.36
2022-09-23T08:09:02.594Z,13.42
2022-09-23T08:10:02.601Z,13.51
2022-09-23T08:11:02.621Z,13.58
2022-09-23T08:12:02.556Z,13.63
2022-09-23T08:13:02.539Z,13.67
2022-09-23T08:14:02.617Z,13.67
2022-09-23T08:15:02.521Z,13.68
2022-09-23T08:16:02.604Z,13.68
2022-09-23T08:17:02.487Z,13.75
2022-09-23T08:18:02.497Z,13.80
2022-09-23T08:19:02.606Z,13.88
2022-09-23T08:20:02.459Z,13.97
2022-09-23T08:21:02.459Z,13.96
2022-09-23T08:22:02.460Z,13.85
2022-09-23T08:23:02.418Z,13.90
2022-09-23T08:24:02.488Z,13.93
2022-09-23T08:25:02.404Z,14.00
2022-09-23T08:26:02.391Z,14.21
2022-09-23T08:27:02.365Z,14.37
2022-09-23T08:28:02.353Z,14.41
2022-09-23T08:29:02.355Z,14.36
2022-09-23T08:30:02.329Z,14.46
2022-09-23T08:31:02.371Z,14.58
2022-09-23T08:32:02.309Z,14.73
2022-09-23T08:33:02.310Z,14.71
2022-09-23T08:34:02.380Z,14.70
2022-09-23T08:40:01.478Z,14.48
2022-09-23T08:41:02.438Z,14.40
2022-09-23T08:42:02.420Z,14.40
2022-09-23T08:43:02.399Z,14.51
2022-09-23T08:44:02.418Z,14.53
2022-09-23T08:45:02.379Z,14.70
2022-09-23T08:46:02.430Z,14.96
2022-09-23T08:47:02.353Z,15.11
2022-09-23T08:48:02.323Z,15.20
2022-09-23T08:49:02.319Z,15.20
2022-09-23T08:50:02.302Z,15.36
2022-09-23T08:51:02.315Z,15.38
2022-09-23T08:52:02.270Z,15.50
2022-09-23T08:53:02.265Z,15.68
2022-09-23T08:54:02.274Z,15.83
2022-09-23T08:55:02.255Z,16.14
2022-09-23T08:56:02.246Z,16.55
2022-09-23T08:57:02.212Z,16.70
2022-09-23T08:58:24.081Z,16.98
2022-09-23T08:59:02.197Z,17.07
2022-09-23T09:00:02.170Z,17.20
2022-09-23T09:01:02.193Z,17.46
2022-09-23T09:02:02.163Z,17.69
2022-09-23T09:03:02.148Z,17.79
2022-09-23T09:04:02.115Z,17.47
2022-09-23T09:05:02.121Z,17.27
2022-09-23T09:06:02.095Z,16.99
2022-09-23T09:07:24.469Z,16.46
2022-09-23T09:08:02.075Z,16.25
2022-09-23T09:09:02.050Z,16.25
2022-09-23T09:10:02.036Z,16.13
2022-09-23T09:11:02.028Z,16.13
2022-09-23T09:12:02.029Z,16.17
2022-09-23T09:13:02.004Z,16.25
2022-09-23T09:14:01.980Z,16.26
2022-09-23T09:15:02.025Z,16.21
2022-09-23T09:16:02.094Z,15.98
2022-09-23T09:17:02.054Z,15.65
2022-09-23T09:18:01.941Z,15.51
2022-09-23T09:19:02.031Z,15.43
2022-09-23T09:20:01.902Z,15.43
2022-09-23T09:21:01.917Z,15.33
2022-09-23T09:22:01.877Z,15.35
2022-09-23T09:23:01.873Z,15.43
2022-09-23T09:24:01.931Z,15.41
2022-09-23T09:25:01.860Z,15.47
2022-09-23T09:26:01.848Z,15.65
2022-09-23T09:27:01.818Z,15.77
2022-09-23T09:28:01.812Z,15.84
2022-09-23T09:29:23.437Z,15.98
2022-09-23T09:30:01.797Z,16.14
2022-09-23T09:31:01.888Z,16.17
2022-09-23T09:32:01.746Z,16.17
2022-09-23T09:33:01.742Z,16.26
2022-09-23T09:34:01.721Z,16.18
2022-09-23T09:39:53.017Z,16.26
2022-09-23T09:40:54.040Z,16.21
2022-09-23T09:41:53.965Z,16.21
2022-09-23T09:42:53.947Z,16.25
2022-09-23T09:43:53.966Z,16.09
2022-09-23T09:44:54.083Z,16.05
2022-09-23T09:45:57.782Z,16.18
2022-09-23T09:46:53.947Z,16.43
2022-09-23T09:47:53.891Z,16.74
2022-09-23T09:48:53.893Z,16.98
2022-09-23T09:49:53.847Z,17.07
2022-09-23T09:50:53.864Z,17.32
2022-09-23T09:51:53.845Z,17.52
2022-09-23T09:52:53.759Z,17.38
2022-09-23T09:53:53.790Z,17.37
2022-09-23T09:54:53.731Z,17.14
2022-09-23T09:55:53.735Z,17.16
2022-09-23T09:56:53.729Z,17.22
2022-09-23T09:57:53.711Z,17.19
2022-09-23T09:58:53.707Z,17.17
2022-09-23T09:59:53.674Z,17.27
2022-09-23T10:00:53.685Z,17.30
2022-09-23T10:01:53.696Z,17.28
2022-09-23T10:02:53.627Z,17.32
2022-09-23T10:03:56.893Z,17.31
2022-09-23T10:04:53.678Z,17.38
2022-09-23T10:05:53.610Z,17.50
2022-09-23T10:06:53.604Z,17.66
2022-09-23T10:07:53.573Z,17.91
2022-09-23T10:08:53.546Z,18.13
2022-09-23T10:09:55.779Z,18.24
2022-09-23T10:10:53.523Z,18.21
2022-09-23T10:11:53.550Z,18.41
2022-09-23T10:12:53.495Z,18.57
2022-09-23T10:13:53.485Z,18.68
2022-09-23T10:14:53.491Z,18.71
2022-09-23T10:15:53.459Z,18.49
2022-09-23T10:16:53.553Z,18.26
2022-09-23T10:17:53.459Z,18.02
2022-09-23T10:18:53.423Z,17.96
2022-09-23T10:19:53.408Z,18.03
2022-09-23T10:20:53.387Z,18.06
2022-09-23T10:21:53.406Z,18.13
2022-09-23T10:22:53.395Z,18.38
2022-09-23T10:23:53.366Z,18.67
2022-09-23T10:24:53.344Z,18.86
2022-09-23T10:25:53.334Z,18.98
2022-09-23T10:26:53.342Z,19.04
2022-09-23T10:27:53.299Z,19.09
2022-09-23T10:28:53.287Z,19.16
2022-09-23T10:29:53.285Z,19.22
2022-09-23T10:30:53.312Z,19.12
2022-09-23T10:31:53.539Z,18.70
2022-09-23T10:32:53.238Z,18.57
2022-09-23T10:33:53.229Z,18.39
2022-09-23T10:34:53.226Z,18.27
2022-09-23T10:39:52.380Z,18.43
2022-09-23T10:40:54.089Z,18.52
2022-09-23T10:41:53.347Z,18.64
2022-09-23T10:42:53.317Z,18.54
2022-09-23T10:43:53.310Z,18.60
2022-09-23T10:44:53.292Z,18.67
2022-09-23T10:45:53.359Z,18.78
2022-09-23T10:46:53.268Z,18.96
2022-09-23T10:47:53.262Z,19.22
2022-09-23T10:48:53.243Z,19.24
2022-09-23T10:49:53.237Z,19.30
2022-09-23T10:50:53.247Z,19.17
2022-09-23T10:51:53.212Z,19.24
2022-09-23T10:52:53.189Z,19.42
2022-09-23T10:53:53.184Z,19.67
2022-09-23T10:54:53.184Z,19.90
2022-09-23T10:55:53.174Z,19.82
2022-09-23T10:56:53.189Z,20.02
2022-09-23T10:57:53.129Z,20.18
2022-09-23T10:58:53.113Z,20.41
2022-09-23T10:59:53.122Z,20.60
2022-09-23T11:00:53.110Z,20.80
2022-09-23T11:01:53.169Z,21.05
2022-09-23T11:02:53.064Z,21.19
2022-09-23T11:03:53.058Z,20.97
2022-09-23T11:04:53.059Z,20.80
2022-09-23T11:05:53.043Z,20.79
2022-09-23T11:06:53.030Z,20.80
2022-09-23T11:07:53.005Z,20.63
2022-09-23T11:08:53.004Z,20.39
2022-09-23T11:09:52.981Z,20.37
2022-09-23T11:10:52.988Z,20.50
2022-09-23T11:11:52.993Z,20.63
2022-09-23T11:12:52.995Z,20.52
2022-09-23T11:13:54.700Z,20.42
2022-09-23T11:14:52.910Z,20.07
2022-09-23T11:15:52.930Z,19.79
2022-09-23T11:16:52.962Z,19.81
2022-09-23T11:17:52.908Z,20.08
2022-09-23T11:18:52.862Z,20.26
2022-09-23T11:19:52.860Z,20.46
2022-09-23T11:20:52.863Z,20.36
2022-09-23T11:21:52.839Z,20.15
2022-09-23T11:22:52.880Z,20.26
2022-09-23T11:23:52.848Z,20.09
2022-09-23T11:24:52.792Z,20.07
2022-09-23T11:25:52.815Z,20.00
2022-09-23T11:26:52.759Z,19.99
2022-09-23T11:27:52.766Z,19.92
2022-09-23T11:28:52.738Z,19.99
2022-09-23T11:29:52.739Z,20.05
2022-09-23T11:30:52.821Z,20.17
2022-09-23T11:31:57.390Z,20.39
2022-09-23T11:32:52.738Z,20.48
2022-09-23T11:33:52.682Z,20.55
2022-09-23T11:34:54.885Z,20.18
2022-09-23T11:35:52.673Z,19.89
2022-09-23T11:36:52.632Z,19.56
2022-09-23T11:37:52.627Z,19.44
2022-09-23T11:38:52.637Z,19.30
2022-09-23T11:39:52.601Z,19.15
2022-09-23T11:40:52.665Z,18.93
2022-09-23T11:41:52.578Z,18.81
2022-09-23T11:42:52.555Z,18.70
2022-09-23T11:43:52.548Z,18.68
2022-09-23T11:44:52.545Z,18.70
2022-09-23T11:45:52.621Z,18.64
2022-09-23T11:46:52.535Z,18.68
2022-09-23T11:47:52.501Z,18.81
2022-09-23T11:48:52.476Z,18.97
2022-09-23T11:49:52.476Z,18.93
2022-09-23T11:59:52.735Z,18.98
2022-09-23T12:00:32.703Z,18.94
2022-09-23T12:01:37.575Z,18.98
2022-09-23T12:02:32.771Z,18.98
2022-09-23T12:03:43.398Z,19.00
2022-09-23T12:04:32.756Z,19.05
2022-09-23T12:05:32.828Z,19.07
2022-09-23T12:06:32.631Z,19.04
2022-09-23T12:07:32.628Z,18.89
2022-09-23T12:08:32.597Z,18.83
2022-09-23T12:09:56.822Z,18.86
2022-09-23T12:10:32.604Z,18.82
2022-09-23T12:11:32.572Z,18.85
2022-09-23T12:12:32.547Z,18.88
2022-09-23T12:13:32.527Z,18.91
2022-09-23T12:14:32.565Z,18.93
2022-09-23T12:15:32.541Z,18.96
2022-09-23T12:16:32.629Z,19.00
2022-09-23T12:17:32.475Z,19.07
2022-09-23T12:18:32.466Z,19.13
2022-09-23T12:19:32.455Z,19.20
2022-09-23T12:20:32.476Z,19.22
2022-09-23T12:21:49.714Z,19.15
2022-09-23T12:22:32.424Z,19.16
2022-09-23T12:23:32.415Z,19.20
2022-09-23T12:24:32.390Z,19.31
2022-09-23T12:25:32.401Z,19.37
2022-09-23T12:26:32.365Z,19.38
2022-09-23T12:27:32.366Z,19.31
2022-09-23T12:28:32.335Z,19.17
2022-09-23T12:29:32.359Z,19.09
2022-09-23T12:30:32.408Z,19.12
2022-09-23T12:31:33.880Z,19.12
2022-09-23T12:32:32.308Z,19.12
2022-09-23T12:33:32.297Z,19.19
2022-09-23T12:34:32.266Z,19.31
2022-09-23T12:35:32.275Z,19.39
2022-09-23T12:36:32.247Z,19.45
2022-09-23T12:37:32.234Z,19.53
2022-09-23T12:38:32.270Z,19.62
2022-09-23T12:39:32.250Z,19.63
2022-09-23T12:40:32.244Z,19.59
2022-09-23T12:41:32.185Z,19.50
2022-09-23T12:42:32.158Z,19.49
2022-09-23T12:43:32.176Z,19.52
2022-09-23T12:44:32.146Z,19.52
2022-09-23T12:45:32.283Z,19.53
2022-09-23T12:46:32.110Z,19.44
2022-09-23T12:47:32.118Z,19.31
2022-09-23T12:48:32.091Z,19.15
2022-09-23T12:49:32.072Z,18.97
2022-09-23T12:50:32.072Z,18.97
2022-09-23T12:51:32.056Z,19.01
2022-09-23T12:52:32.038Z,19.05
2022-09-23T12:53:32.019Z,19.09
2022-09-23T12:54:32.012Z,19.04
2022-09-23T12:55:32.014Z,19.05
2022-09-23T12:56:31.979Z,19.09
2022-09-23T12:57:31.971Z,19.15
2022-09-23T12:58:31.966Z,19.26
2022-09-23T12:59:31.944Z,19.31
2022-09-23T13:00:34.284Z,19.27
2022-09-23T13:01:32.030Z,19.22
2022-09-23T13:02:31.963Z,19.22
2022-09-23T13:03:31.893Z,19.26
2022-09-23T13:04:31.898Z,19.23
2022-09-23T13:05:31.887Z,19.17
2022-09-23T13:06:31.850Z,19.09
2022-09-23T13:07:31.882Z,19.01
2022-09-23T13:08:31.850Z,18.97
2022-09-23T13:09:31.824Z,19.00
2022-09-23T13:10:31.825Z,19.05
2022-09-23T13:11:31.860Z,19.01
2022-09-23T13:12:31.778Z,18.97
2022-09-23T13:13:31.801Z,18.98
2022-09-23T13:14:31.773Z,19.09
2022-09-23T13:15:31.749Z,19.04
2022-09-23T13:16:31.801Z,18.96
2022-09-23T13:17:31.711Z,18.86
2022-09-23T13:18:31.757Z,18.88
2022-09-23T13:19:35.332Z,18.94
2022-09-23T13:20:31.717Z,19.04
2022-09-23T13:21:31.665Z,19.07
2022-09-23T13:22:31.641Z,19.09
2022-09-23T13:23:31.653Z,19.07
2022-09-23T13:24:31.613Z,19.08
2022-09-23T13:25:31.639Z,19.08
2022-09-23T13:26:31.612Z,19.00
2022-09-23T13:27:31.580Z,18.96
2022-09-23T13:28:31.622Z,18.88
2022-09-23T13:29:31.572Z,18.82
2022-09-23T13:30:31.560Z,18.82
2022-09-23T13:31:31.575Z,18.85
2022-09-23T13:32:31.535Z,18.81
2022-09-23T13:33:31.510Z,18.75
2022-09-23T13:34:31.515Z,18.76
2022-09-23T13:35:31.489Z,18.75
2022-09-23T13:36:31.480Z,18.76
2022-09-23T13:37:31.475Z,18.70
2022-09-23T13:38:31.433Z,18.67
2022-09-23T13:39:31.454Z,18.64
2022-09-23T13:40:31.470Z,18.60
2022-09-23T13:41:31.399Z,18.56
2022-09-23T13:42:31.401Z,18.57
2022-09-23T13:43:31.400Z,18.58
2022-09-23T13:44:31.355Z,18.52
2022-09-23T13:45:31.414Z,18.43
2022-09-23T13:46:31.330Z,18.41
2022-09-23T13:47:31.429Z,18.39
2022-09-23T13:48:31.307Z,18.41
2022-09-23T13:49:31.321Z,18.39
2022-09-23T13:50:34.819Z,18.34
2022-09-23T13:51:31.307Z,18.33
2022-09-23T13:52:31.261Z,18.31
2022-09-23T13:53:31.256Z,18.31
2022-09-23T13:54:31.404Z,18.33
2022-09-23T13:55:31.227Z,18.30
2022-09-23T13:56:31.279Z,18.33
2022-09-23T13:57:31.193Z,18.31
2022-09-23T13:58:31.179Z,18.28